Fort Atkinson, WI

2:19 AM CDT on August 29, 2015 (GMT -0500)
Central Fort Atkinson | | Change Station
CLOSE
Current Station
Personal Weather Station
Location: Fort Atkinson, WI
Elevation: 784 ft
Nearby Weather Stations

Elev 784 ft 42.93 °N, 88.83 °W | Updated 14 minutes ago

Rain
Rain
62.5 °F
Feels Like 62.5 °F
N
3.0
Wind Variable Wind from NE
Gusts 5.0 mph

Today
High -- | Low -- °F
--% Chance of Precip.
Yesterday
High -- | Low -- °F
Precip. -- in
6:16 AM 7:35 PM
Full, 100% visible
Pressure 30.05 in
Visibility 5.0 miles
Clouds Scattered Clouds 700 ft
Mostly Cloudy 3900 ft
Overcast 5000 ft
Dew Point 61 °F
Humidity 96%
Rainfall 0.06 in
Snow Depth Not available.
UV 0.0 out of 12
Pollen 3.70 out of 12
Air Quality Not available.
Flu Activity Not available.
METAR KRYV 290655Z AUTO 15005KT 5SM DZ SCT007 BKN039 OVC050 16/16 A3005 RMK AO2 P0004 T01570157
Pressure 30.05 in
Visibility 5.0 miles
Clouds Scattered Clouds 700 ft
Mostly Cloudy 3900 ft
Overcast 5000 ft
Dew Point 61 °F
Humidity 96%
Rainfall 0.06 in
Snow Depth Not available.
UV 0.0 out of 12
Pollen 3.70 out of 12
Air Quality Not available.
Flu Activity Not available.
METAR KRYV 290655Z AUTO 15005KT 5SM DZ SCT007 BKN039 OVC050 16/16 A3005 RMK AO2 P0004 T01570157

10-Day Weather Forecast

×

Almanac

Astronomy

Aug. 29, 2015 Rise Set
Actual Time
Civil Twilight
Nautical Twilight
Astronomical Twilight
Moon
Length of Visible Light
Length of Day
Tomorrow will be .
, % of the Moon is Illuminated

Today's Extremes

State Highs State Lows

Community

WunderPhotos

Upload Photos

1,850,632 photos uploaded!

WunderBlogs® & News

Nearby

Air Quality

  Air Quality AQ Index Pollutant
Not available.

Snow Depth

Station Depth Elevation

Earthquake Activity

City Distance Mag. Time & Date
Minimum magnitude displayed is 2.5.

Coastal Water Temperatures

Place Temperature

Stations

Nearby Weather Stations

Station Location Temp. Windchill Dew Point Humidity Wind Precip. Elev Updated Type